Time;durP1;ratioP1;P1;durP2;ratioP2;P2;SDS_P1;SDS_P2;PMS_P1;PMS_P2;Temp;Humidity;BMP_temperature;BMP_pressure;BME280_temperature;BME280_humidity;BME280_pressure;Samples;Min_cycle;Max_cycle;Signal;HPM_P1;HPM_P2
2024/02/02 00:01:14;;;;;;;12.20;2.23;;;;;;;;;;4987396;28;20030;-73
2024/02/02 00:03:39;;;;;;;4.80;1.60;;;;;;;;;;4986337;28;20360;-75
2024/02/02 00:06:05;;;;;;;5.67;1.70;;;;;;;;;;4970137;28;20383;-74
2024/02/02 00:08:31;;;;;;;12.90;1.80;;;;;;;;;;4985752;28;20034;-74
2024/02/02 00:10:56;;;;;;;5.20;1.60;;;;;;;;;;4985639;28;20026;-73
2024/02/02 00:13:22;;;;;;;4.47;1.30;;;;;;;;;;4972406;28;20434;-73
2024/02/02 00:15:48;;;;;;;4.03;1.53;;;;;;;;;;4987595;28;20387;-73
2024/02/02 00:18:13;;;;;;;5.63;1.40;;;;;;;;;;4986282;28;20109;-74
2024/02/02 00:20:39;;;;;;;7.53;1.90;;;;;;;;;;4986222;28;20031;-71
2024/02/02 00:23:04;;;;;;;5.70;1.60;;;;;;;;;;4971412;28;20041;-74
2024/02/02 00:25:30;;;;;;;6.47;1.53;;;;;;;;;;4985836;28;20459;-73
2024/02/02 00:27:55;;;;;;;5.17;1.00;;;;;;;;;;4970786;28;20019;-73
2024/02/02 00:30:21;;;;;;;7.57;1.53;;;;;;;;;;4985614;28;20064;-74
2024/02/02 00:32:47;;;;;;;5.27;1.80;;;;;;;;;;4969143;28;20449;-74
2024/02/02 00:35:13;;;;;;;10.17;2.23;;;;;;;;;;4971363;28;20459;-74
2024/02/02 00:37:39;;;;;;;11.93;4.60;;;;;;;;;;4974097;28;20399;-75
2024/02/02 00:40:09;;;;;;;18.73;2.27;;;;;;;;;;4975537;28;20058;-72
2024/02/02 00:42:35;;;;;;;5.60;1.53;;;;;;;;;;4989515;28;20121;-73
2024/02/02 00:45:01;;;;;;;6.33;1.20;;;;;;;;;;4989002;28;20030;-73
2024/02/02 00:47:26;;;;;;;5.23;2.00;;;;;;;;;;4989670;28;20076;-74
2024/02/02 00:49:52;;;;;;;8.93;1.70;;;;;;;;;;4974223;28;20097;-74
2024/02/02 00:52:18;;;;;;;10.00;2.63;;;;;;;;;;4974381;28;20489;-74
2024/02/02 00:54:43;;;;;;;13.27;2.90;;;;;;;;;;4988506;28;20137;-73
2024/02/02 00:57:09;;;;;;;5.87;1.60;;;;;;;;;;4988669;28;20558;-74
2024/02/02 00:59:34;;;;;;;9.10;2.10;;;;;;;;;;4988678;28;20033;-74
2024/02/02 01:02:00;;;;;;;10.43;2.00;;;;;;;;;;4988545;28;20041;-73
2024/02/02 01:04:26;;;;;;;6.10;2.23;;;;;;;;;;4974230;28;20332;-73
2024/02/02 01:06:52;;;;;;;9.23;2.63;;;;;;;;;;4973766;28;20034;-72
2024/02/02 01:09:17;;;;;;;10.20;2.23;;;;;;;;;;4974361;28;20121;-75
2024/02/02 01:11:43;;;;;;;6.80;2.13;;;;;;;;;;4989307;28;20027;-73
2024/02/02 01:14:08;;;;;;;8.57;2.20;;;;;;;;;;4973451;28;20387;-73
2024/02/02 01:16:34;;;;;;;9.30;2.20;;;;;;;;;;4989211;28;20062;-73
2024/02/02 01:19:00;;;;;;;8.93;2.00;;;;;;;;;;4988856;28;20030;-73
2024/02/02 01:21:25;;;;;;;5.87;1.77;;;;;;;;;;4973882;28;20041;-73
2024/02/02 01:23:51;;;;;;;7.53;1.67;;;;;;;;;;4972326;28;20387;-74
2024/02/02 01:26:17;;;;;;;13.10;2.30;;;;;;;;;;4988687;28;20030;-73
2024/02/02 01:28:42;;;;;;;6.27;2.23;;;;;;;;;;4974181;28;20077;-73
2024/02/02 01:31:08;;;;;;;7.77;1.80;;;;;;;;;;4973930;28;20518;-75
2024/02/02 01:33:34;;;;;;;7.50;1.90;;;;;;;;;;4974135;28;20031;-73
2024/02/02 01:36:00;;;;;;;10.50;1.70;;;;;;;;;;4988884;28;20014;-75
2024/02/02 01:38:26;;;;;;;6.63;1.50;;;;;;;;;;4988656;28;20031;-75
2024/02/02 01:40:51;;;;;;;5.27;1.63;;;;;;;;;;4973726;28;20038;-75
2024/02/02 01:43:17;;;;;;;7.13;1.50;;;;;;;;;;4972060;28;20042;-73
2024/02/02 01:45:44;;;;;;;13.53;2.20;;;;;;;;;;4987832;28;20019;-73
2024/02/02 01:48:11;;;;;;;12.40;2.30;;;;;;;;;;4973448;28;20018;-73
2024/02/02 01:50:36;;;;;;;7.70;1.67;;;;;;;;;;4973465;28;20033;-74
2024/02/02 01:53:02;;;;;;;5.23;2.07;;;;;;;;;;4987885;28;20340;-74
2024/02/02 01:55:27;;;;;;;9.87;1.87;;;;;;;;;;4971926;28;20022;-75
2024/02/02 01:57:54;;;;;;;4.77;1.40;;;;;;;;;;4987852;28;20030;-74
2024/02/02 02:00:21;;;;;;;5.60;2.10;;;;;;;;;;4987997;28;20101;-74
2024/02/02 02:02:47;;;;;;;12.50;2.70;;;;;;;;;;4973289;28;20049;-72
2024/02/02 02:05:12;;;;;;;7.10;1.60;;;;;;;;;;4973052;28;20558;-75
2024/02/02 02:07:43;;;;;;;4.47;1.60;;;;;;;;;;4987770;28;20015;-76
2024/02/02 02:10:10;;;;;;;4.50;1.60;;;;;;;;;;4972664;28;20483;-73
2024/02/02 02:12:36;;;;;;;5.73;1.40;;;;;;;;;;4987846;28;20483;-72
2024/02/02 02:15:02;;;;;;;7.80;2.17;;;;;;;;;;4972316;28;20105;-73
2024/02/02 02:17:27;;;;;;;11.63;1.90;;;;;;;;;;4955139;28;20027;-72
2024/02/02 02:19:53;;;;;;;7.87;2.30;;;;;;;;;;4970979;28;20023;-73
2024/02/02 02:22:18;;;;;;;5.47;1.77;;;;;;;;;;4972360;28;20069;-74
2024/02/02 02:24:44;;;;;;;6.57;1.50;;;;;;;;;;4972475;28;20149;-74
2024/02/02 02:27:11;;;;;;;7.33;1.77;;;;;;;;;;4987377;28;20073;-74
2024/02/02 02:29:36;;;;;;;5.00;1.47;;;;;;;;;;4974196;28;20459;-73
2024/02/02 02:32:02;;;;;;;7.47;1.47;;;;;;;;;;4988056;28;20026;-73
2024/02/02 02:34:28;;;;;;;6.10;2.30;;;;;;;;;;4972077;28;20027;-74
2024/02/02 02:36:54;;;;;;;5.20;1.70;;;;;;;;;;4971749;28;20034;-75
2024/02/02 02:39:20;;;;;;;3.97;1.43;;;;;;;;;;4971145;28;20030;-74
2024/02/02 02:41:46;;;;;;;6.10;2.27;;;;;;;;;;4987339;28;20023;-74
2024/02/02 02:44:14;;;;;;;9.93;1.50;;;;;;;;;;4987195;28;20026;-72
2024/02/02 02:46:42;;;;;;;11.97;1.67;;;;;;;;;;4973060;28;20030;-74
2024/02/02 02:49:08;;;;;;;10.40;1.90;;;;;;;;;;4988238;28;20269;-73
2024/02/02 02:51:33;;;;;;;7.33;1.90;;;;;;;;;;4972951;28;20101;-75
2024/02/02 02:53:59;;;;;;;10.30;2.20;;;;;;;;;;4984371;28;20046;-74
2024/02/02 02:56:25;;;;;;;8.53;2.00;;;;;;;;;;5006888;28;20056;-73
2024/02/02 02:58:50;;;;;;;4.40;1.00;;;;;;;;;;5005980;28;20031;-73
2024/02/02 03:01:18;;;;;;;13.33;1.90;;;;;;;;;;5006401;28;20112;-74
2024/02/02 03:03:43;;;;;;;10.13;1.87;;;;;;;;;;5006782;28;20030;-75
2024/02/02 03:06:09;;;;;;;7.47;1.97;;;;;;;;;;5006584;28;20022;-74
2024/02/02 03:08:35;;;;;;;9.47;1.80;;;;;;;;;;5006307;28;20038;-74
2024/02/02 03:11:01;;;;;;;5.47;1.67;;;;;;;;;;5006038;28;20026;-75
2024/02/02 03:13:26;;;;;;;7.47;1.50;;;;;;;;;;5006235;28;20372;-73
2024/02/02 03:15:52;;;;;;;3.40;1.07;;;;;;;;;;5005817;28;20022;-75
2024/02/02 03:18:18;;;;;;;6.07;1.30;;;;;;;;;;5006354;28;20526;-74
2024/02/02 03:20:44;;;;;;;7.73;1.80;;;;;;;;;;5006736;28;20044;-73
2024/02/02 03:23:10;;;;;;;7.80;2.33;;;;;;;;;;5006230;28;20026;-72
2024/02/02 03:25:35;;;;;;;7.93;1.73;;;;;;;;;;4991154;28;20038;-73
2024/02/02 03:28:01;;;;;;;7.07;1.40;;;;;;;;;;4991065;28;20027;-74
2024/02/02 03:30:27;;;;;;;11.20;1.30;;;;;;;;;;4992105;28;20076;-74
2024/02/02 03:32:54;;;;;;;7.13;1.90;;;;;;;;;;4994711;28;20073;-72
2024/02/02 03:35:19;;;;;;;4.27;1.53;;;;;;;;;;5012436;28;20046;-74
2024/02/02 03:37:46;;;;;;;13.53;2.23;;;;;;;;;;5013397;28;20030;-73
2024/02/02 03:40:12;;;;;;;10.13;1.40;;;;;;;;;;4990974;28;20049;-73
2024/02/02 03:42:38;;;;;;;6.50;1.73;;;;;;;;;;4974628;28;20027;-74
2024/02/02 03:45:05;;;;;;;4.13;1.30;;;;;;;;;;4970993;28;20035;-74
2024/02/02 03:47:31;;;;;;;4.90;1.73;;;;;;;;;;4986297;28;20026;-73
2024/02/02 03:49:57;;;;;;;5.77;1.63;;;;;;;;;;4969700;28;20039;-72
2024/02/02 03:52:23;;;;;;;6.27;1.53;;;;;;;;;;4985752;28;20026;-73
2024/02/02 03:54:50;;;;;;;2.70;1.53;;;;;;;;;;5004448;28;20142;-73
2024/02/02 03:57:16;;;;;;;14.23;1.97;;;;;;;;;;4989212;28;20053;-73
2024/02/02 03:59:42;;;;;;;9.00;2.10;;;;;;;;;;5005534;28;20066;-73
2024/02/02 04:02:09;;;;;;;5.63;1.77;;;;;;;;;;4990750;28;20039;-71
2024/02/02 04:04:35;;;;;;;4.93;1.30;;;;;;;;;;4990347;28;20038;-73
2024/02/02 04:07:01;;;;;;;5.77;2.20;;;;;;;;;;5005302;28;20034;-74
2024/02/02 04:09:27;;;;;;;15.90;2.10;;;;;;;;;;4990684;28;20046;-75
2024/02/02 04:11:53;;;;;;;5.00;1.63;;;;;;;;;;4994454;28;20026;-73
2024/02/02 04:14:19;;;;;;;14.73;2.83;;;;;;;;;;5009879;28;20031;-74
2024/02/02 04:16:45;;;;;;;16.73;2.40;;;;;;;;;;5010240;28;20559;-72
2024/02/02 04:19:15;;;;;;;6.97;1.83;;;;;;;;;;4994967;28;20026;-73
2024/02/02 04:21:41;;;;;;;8.10;2.20;;;;;;;;;;5009233;28;20022;-75
2024/02/02 04:24:07;;;;;;;10.33;2.07;;;;;;;;;;5009359;28;20413;-73
2024/02/02 04:26:33;;;;;;;4.30;1.60;;;;;;;;;;5008863;28;20025;-72
2024/02/02 04:28:58;;;;;;;9.30;2.30;;;;;;;;;;5009245;28;20050;-75
2024/02/02 04:31:24;;;;;;;4.90;1.60;;;;;;;;;;5009338;28;20509;-76
2024/02/02 04:33:50;;;;;;;13.50;2.07;;;;;;;;;;5009565;28;20036;-74
2024/02/02 04:36:16;;;;;;;21.07;2.87;;;;;;;;;;4994735;28;20372;-74
2024/02/02 04:38:43;;;;;;;10.17;2.27;;;;;;;;;;5008857;28;20026;-74
2024/02/02 04:41:09;;;;;;;12.73;2.90;;;;;;;;;;4992338;28;20026;-75
2024/02/02 04:43:34;;;;;;;9.87;2.23;;;;;;;;;;5009177;28;20545;-73
2024/02/02 04:46:00;;;;;;;8.77;2.10;;;;;;;;;;5009209;28;20285;-75
2024/02/02 04:48:25;;;;;;;7.07;2.00;;;;;;;;;;5008503;28;20030;-73
2024/02/02 04:50:51;;;;;;;11.53;2.33;;;;;;;;;;5009060;28;20038;-75
2024/02/02 04:53:17;;;;;;;16.57;3.00;;;;;;;;;;4987665;28;20042;-74
2024/02/02 04:55:43;;;;;;;5.93;2.33;;;;;;;;;;4973463;28;20039;-75
2024/02/02 04:58:09;;;;;;;13.23;3.63;;;;;;;;;;4974801;28;20023;-78
2024/02/02 05:00:37;;;;;;;12.53;2.03;;;;;;;;;;4989879;28;20549;-74
2024/02/02 05:03:03;;;;;;;3.70;1.73;;;;;;;;;;4973925;28;20492;-73
2024/02/02 05:05:29;;;;;;;7.00;2.03;;;;;;;;;;4989262;28;20027;-73
2024/02/02 05:07:54;;;;;;;9.93;3.60;;;;;;;;;;4974043;28;20507;-74
2024/02/02 05:10:20;;;;;;;9.37;2.03;;;;;;;;;;4988852;28;20056;-72
2024/02/02 05:12:46;;;;;;;7.63;2.07;;;;;;;;;;4973850;28;20475;-73
2024/02/02 05:15:11;;;;;;;4.07;1.93;;;;;;;;;;4988653;28;20031;-73
2024/02/02 05:17:37;;;;;;;7.27;2.63;;;;;;;;;;4988497;28;20234;-72
2024/02/02 05:20:04;;;;;;;6.43;2.33;;;;;;;;;;4987927;28;20451;-73
2024/02/02 05:22:30;;;;;;;4.37;1.93;;;;;;;;;;4973807;28;20105;-75
2024/02/02 05:24:56;;;;;;;11.80;1.97;;;;;;;;;;4988857;28;20110;-72
2024/02/02 05:27:22;;;;;;;6.70;2.17;;;;;;;;;;4972982;28;20114;-75
2024/02/02 05:29:48;;;;;;;9.27;2.50;;;;;;;;;;4988740;28;20460;-73
2024/02/02 05:32:14;;;;;;;7.40;2.17;;;;;;;;;;4988191;28;20546;-74
2024/02/02 05:34:42;;;;;;;4.20;1.97;;;;;;;;;;4973919;28;20038;-73
2024/02/02 05:37:08;;;;;;;8.70;2.23;;;;;;;;;;4973288;28;20110;-73
2024/02/02 05:39:36;;;;;;;7.67;3.20;;;;;;;;;;4973681;28;20030;-74
2024/02/02 05:42:02;;;;;;;15.13;3.97;;;;;;;;;;4973836;28;20027;-74
2024/02/02 05:44:27;;;;;;;10.10;2.90;;;;;;;;;;4972268;28;20038;-75
2024/02/02 05:46:53;;;;;;;9.67;2.37;;;;;;;;;;4988637;28;20121;-76
2024/02/02 05:49:18;;;;;;;8.57;2.50;;;;;;;;;;4973735;28;20078;-73
2024/02/02 05:51:44;;;;;;;11.60;2.63;;;;;;;;;;4988167;28;20058;-73
2024/02/02 05:54:10;;;;;;;11.40;2.47;;;;;;;;;;4985150;28;20057;-73
2024/02/02 05:56:36;;;;;;;7.27;2.60;;;;;;;;;;4991789;28;20029;-74
2024/02/02 05:59:04;;;;;;;10.83;2.40;;;;;;;;;;5007975;28;20022;-76
2024/02/02 06:01:29;;;;;;;10.53;2.53;;;;;;;;;;5008040;28;20132;-74
2024/02/02 06:03:55;;;;;;;7.33;2.00;;;;;;;;;;4992513;28;20026;-73
2024/02/02 06:06:20;;;;;;;10.77;2.30;;;;;;;;;;5007267;28;20026;-73
2024/02/02 06:08:47;;;;;;;15.03;2.87;;;;;;;;;;5007556;28;20029;-74
2024/02/02 06:11:15;;;;;;;10.43;2.43;;;;;;;;;;4992476;28;20506;-74
2024/02/02 06:13:41;;;;;;;8.70;2.07;;;;;;;;;;4974743;28;20026;-75
2024/02/02 06:16:09;;;;;;;6.93;2.23;;;;;;;;;;4990899;28;20041;-74
2024/02/02 06:18:35;;;;;;;9.30;2.60;;;;;;;;;;4975191;28;20375;-74
2024/02/02 06:21:02;;;;;;;7.43;2.90;;;;;;;;;;5006499;28;20103;-73
2024/02/02 06:23:28;;;;;;;10.30;2.40;;;;;;;;;;5006980;28;20022;-73
2024/02/02 06:25:54;;;;;;;8.50;2.73;;;;;;;;;;5006830;28;20033;-74
2024/02/02 06:28:19;;;;;;;11.07;2.70;;;;;;;;;;4991719;28;20513;-74
2024/02/02 06:30:49;;;;;;;6.87;2.90;;;;;;;;;;5006971;28;20055;-74
2024/02/02 06:33:16;;;;;;;5.47;2.43;;;;;;;;;;4990770;28;20049;-73
2024/02/02 06:35:46;;;;;;;12.00;2.87;;;;;;;;;;4990437;28;20533;-75
2024/02/02 06:38:12;;;;;;;8.97;2.57;;;;;;;;;;5005776;28;20134;-72
2024/02/02 06:40:38;;;;;;;10.17;2.77;;;;;;;;;;4978418;28;20359;-74
2024/02/02 06:43:04;;;;;;;17.63;2.80;;;;;;;;;;4983711;28;20038;-72
2024/02/02 06:45:30;;;;;;;14.63;2.63;;;;;;;;;;4971933;28;20404;-72
2024/02/02 06:47:57;;;;;;;9.50;2.50;;;;;;;;;;4979060;28;20088;-73
2024/02/02 06:50:23;;;;;;;8.20;1.70;;;;;;;;;;4983077;28;20102;-74
2024/02/02 07:03:25;;;;;;;10.07;3.60;;;;;;;;;;6148882;22;1492477;-72
2024/02/02 07:05:51;;;;;;;14.47;3.40;;;;;;;;;;6166604;23;20017;-73
2024/02/02 07:08:17;;;;;;;7.87;2.60;;;;;;;;;;6188040;23;20012;-70
2024/02/02 07:10:42;;;;;;;10.53;3.80;;;;;;;;;;6192613;23;20061;-73
2024/02/02 07:13:09;;;;;;;17.43;2.53;;;;;;;;;;6167653;23;20009;-73
2024/02/02 07:15:44;;;;;;;11.47;3.53;;;;;;;;;;6195205;23;20000;-74
2024/02/02 07:18:46;;;;;;;12.27;2.43;;;;;;;;;;6193259;23;20000;-73
2024/02/02 07:21:14;;;;;;;18.52;3.15;;;;;;;;;;6146363;23;20013;-71
2024/02/02 07:23:44;;;;;;;13.93;2.50;;;;;;;;;;6168294;23;20158;-76
2024/02/02 07:26:25;;;;;;;12.03;2.60;;;;;;;;;;6195483;23;20059;-76
2024/02/02 07:28:51;;;;;;;10.97;2.20;;;;;;;;;;6188030;23;20004;-75
2024/02/02 07:31:37;;;;;;;16.93;3.83;;;;;;;;;;6168614;23;20478;-76
2024/02/02 07:34:31;;;;;;;4.13;2.40;;;;;;;;;;6144249;23;20123;-69
2024/02/02 07:36:58;;;;;;;14.07;4.73;;;;;;;;;;6148932;23;20067;-75
2024/02/02 07:39:34;;;;;;;10.53;3.43;;;;;;;;;;6166940;23;20035;-73
2024/02/02 07:42:00;;;;;;;13.40;3.77;;;;;;;;;;6170527;23;19997;-73
2024/02/02 07:44:26;;;;;;;13.87;3.10;;;;;;;;;;6200185;23;20020;-75
2024/02/02 07:46:53;;;;;;;7.20;2.80;;;;;;;;;;6199531;23;20081;-74
2024/02/02 07:49:24;;;;;;;15.35;3.28;;;;;;;;;;6195338;23;20009;-71
2024/02/02 07:51:52;;;;;;;9.53;3.10;;;;;;;;;;6194905;23;20055;-74
2024/02/02 07:54:18;;;;;;;13.93;3.10;;;;;;;;;;6195008;23;20428;-75
2024/02/02 07:56:44;;;;;;;14.23;2.93;;;;;;;;;;6167416;23;20036;-73
2024/02/02 07:59:16;;;;;;;10.20;3.30;;;;;;;;;;6191705;23;20533;-74
2024/02/02 08:01:43;;;;;;;8.00;2.73;;;;;;;;;;6168337;23;20001;-74
2024/02/02 08:04:10;;;;;;;9.43;3.53;;;;;;;;;;6190624;23;20031;-74
2024/02/02 08:06:35;;;;;;;11.63;3.00;;;;;;;;;;6162540;23;20032;-73
2024/02/02 08:09:02;;;;;;;8.60;2.93;;;;;;;;;;6161308;23;20013;-73
2024/02/02 08:11:35;;;;;;;17.80;3.77;;;;;;;;;;6138234;23;20326;-73
2024/02/02 08:14:00;;;;;;;12.03;3.77;;;;;;;;;;6163847;23;20354;-77
2024/02/02 08:16:28;;;;;;;11.70;3.30;;;;;;;;;;6162151;23;20012;-73
2024/02/02 08:18:56;;;;;;;15.57;3.90;;;;;;;;;;6187166;23;20021;-73
2024/02/02 08:21:22;;;;;;;9.23;2.97;;;;;;;;;;6183796;23;20000;-74
2024/02/02 08:23:48;;;;;;;10.00;3.30;;;;;;;;;;6138014;23;20012;-74
2024/02/02 08:26:14;;;;;;;17.03;4.13;;;;;;;;;;6136934;23;20035;-73
2024/02/02 08:28:42;;;;;;;11.47;3.27;;;;;;;;;;6183837;23;20497;-76
2024/02/02 08:31:08;;;;;;;15.37;4.00;;;;;;;;;;6161813;23;20044;-76
2024/02/02 08:33:40;;;;;;;12.70;3.63;;;;;;;;;;6160818;23;20005;-75
2024/02/02 08:36:11;;;;;;;24.33;4.60;;;;;;;;;;6187163;23;20068;-74
2024/02/02 08:38:39;;;;;;;8.37;3.47;;;;;;;;;;6158052;23;20013;-74
2024/02/02 08:41:05;;;;;;;15.90;4.03;;;;;;;;;;6160759;23;20082;-71
2024/02/02 08:43:31;;;;;;;9.20;4.03;;;;;;;;;;6112899;23;20699;-73
2024/02/02 08:46:06;;;;;;;6.87;3.50;;;;;;;;;;6161834;23;20009;-74
2024/02/02 08:48:39;;;;;;;16.60;4.17;;;;;;;;;;6160796;23;20013;-73
2024/02/02 08:51:49;;;;;;;12.97;3.47;;;;;;;;;;6160811;23;20009;-73
2024/02/02 08:54:14;;;;;;;14.97;3.63;;;;;;;;;;6160270;23;20461;-74
2024/02/02 08:56:45;;;;;;;7.07;4.30;;;;;;;;;;6163447;23;20005;-77
2024/02/02 08:59:41;;;;;;;11.70;4.00;;;;;;;;;;6186018;23;20009;-73
2024/02/02 09:02:53;;;;;;;10.83;5.00;;;;;;;;;;6185241;23;20025;-76
2024/02/02 09:05:20;;;;;;;6.93;4.00;;;;;;;;;;6137321;23;20072;-77
2024/02/02 09:08:12;;;;;;;17.93;4.53;;;;;;;;;;6160992;23;20168;-70
2024/02/02 09:10:43;;;;;;;6.25;3.25;;;;;;;;;;6150456;23;20527;-76
2024/02/02 09:13:20;;;;;;;19.77;4.63;;;;;;;;;;6160703;23;20024;-75
2024/02/02 09:15:47;;;;;;;16.17;6.50;;;;;;;;;;6163467;23;20179;-76
2024/02/02 09:18:30;;;;;;;14.85;5.00;;;;;;;;;;6160592;23;20016;-73
2024/02/02 09:20:57;;;;;;;17.13;4.50;;;;;;;;;;6138813;23;20028;-74
2024/02/02 09:23:24;;;;;;;13.50;4.43;;;;;;;;;;6138683;23;20013;-77
2024/02/02 09:25:50;;;;;;;17.80;5.43;;;;;;;;;;6138806;23;20012;-74
2024/02/02 09:28:25;;;;;;;12.15;4.20;;;;;;;;;;6135004;23;20075;-76
2024/02/02 09:30:58;;;;;;;14.25;4.70;;;;;;;;;;6161305;23;20005;-73
2024/02/02 09:33:33;;;;;;;11.75;3.80;;;;;;;;;;6160551;23;20040;-75
2024/02/02 09:36:03;;;;;;;10.93;4.00;;;;;;;;;;6162212;23;20150;-76
2024/02/02 09:38:30;;;;;;;11.57;4.47;;;;;;;;;;6161236;23;20005;-76
2024/02/02 09:41:01;;;;;;;11.67;4.40;;;;;;;;;;6161002;23;20434;-78
2024/02/02 09:43:54;;;;;;;17.40;5.40;;;;;;;;;;6161433;23;20009;-76
2024/02/02 09:46:32;;;;;;;7.57;4.37;;;;;;;;;;6161033;23;20152;-75
2024/02/02 09:49:12;;;;;;;16.93;4.23;;;;;;;;;;6158258;23;20068;-76
2024/02/02 09:52:12;;;;;;;13.50;4.68;;;;;;;;;;6162803;23;20009;-74
2024/02/02 09:55:04;;;;;;;15.73;5.82;;;;;;;;;;6167756;23;20014;-75
2024/02/02 09:57:44;;;;;;;11.77;4.40;;;;;;;;;;6188556;23;20028;-77
2024/02/02 10:00:36;;;;;;;10.50;4.70;;;;;;;;;;6187279;23;20020;-78
2024/02/02 10:03:30;;;;;;;15.40;4.80;;;;;;;;;;6187670;23;20032;-72
2024/02/02 10:06:02;;;;;;;11.17;4.47;;;;;;;;;;6162220;23;20009;-74
2024/02/02 10:08:57;;;;;;;12.55;4.68;;;;;;;;;;6188710;23;20001;-71
2024/02/02 10:11:39;;;;;;;14.37;5.07;;;;;;;;;;6162876;23;20073;-75
2024/02/02 10:14:11;;;;;;;7.40;4.53;;;;;;;;;;6161822;23;20083;-73
2024/02/02 10:16:45;;;;;;;19.88;5.35;;;;;;;;;;6162789;23;20084;-71
2024/02/02 10:19:46;;;;;;;17.35;5.90;;;;;;;;;;6163693;23;20005;-73
2024/02/02 10:22:38;;;;;;;21.20;5.72;;;;;;;;;;6186778;23;20009;-74
2024/02/02 10:25:20;;;;;;;19.98;6.43;;;;;;;;;;6162180;23;20001;-74
2024/02/02 10:28:25;;;;;;;15.35;5.47;;;;;;;;;;6188680;23;19997;-75
2024/02/02 10:31:13;;;;;;;14.98;5.68;;;;;;;;;;6143048;23;20005;-74
2024/02/02 10:34:24;;;;;;;13.63;5.17;;;;;;;;;;6188568;23;20000;-74
2024/02/02 10:37:11;;;;;;;12.65;4.80;;;;;;;;;;6188713;23;20000;-73
2024/02/02 10:39:56;;;;;;;18.30;4.93;;;;;;;;;;6163667;23;20019;-73
2024/02/02 10:42:43;;;;;;;17.80;5.45;;;;;;;;;;6158435;23;20009;-73
2024/02/02 10:45:42;;;;;;;14.40;5.67;;;;;;;;;;6160190;23;20029;-73
2024/02/02 10:48:30;;;;;;;21.05;5.78;;;;;;;;;;6159004;23;20012;-73
2024/02/02 10:51:35;;;;;;;22.02;7.03;;;;;;;;;;6163446;23;20020;-74
2024/02/02 10:54:25;;;;;;;12.05;5.78;;;;;;;;;;6188995;23;20065;-73
2024/02/02 10:57:30;;;;;;;13.35;5.95;;;;;;;;;;6161965;23;20069;-74
2024/02/02 11:00:07;;;;;;;17.80;7.30;;;;;;;;;;6189730;23;20005;-74
2024/02/02 11:03:05;;;;;;;23.27;6.82;;;;;;;;;;6162601;23;20017;-74
2024/02/02 11:05:50;;;;;;;17.45;6.47;;;;;;;;;;6187607;23;20021;-74
2024/02/02 11:08:27;;;;;;;17.60;6.63;;;;;;;;;;6163406;23;20009;-75
2024/02/02 11:11:11;;;;;;;17.40;6.03;;;;;;;;;;6189161;23;20009;-75
2024/02/02 11:14:10;;;;;;;11.82;5.13;;;;;;;;;;6137079;23;20045;-72
2024/02/02 11:16:57;;;;;;;15.45;5.78;;;;;;;;;;6186961;23;20067;-75
2024/02/02 11:19:40;;;;;;;18.52;6.57;;;;;;;;;;6189921;23;20004;-74
2024/02/02 11:22:22;;;;;;;10.98;5.60;;;;;;;;;;6162946;23;20397;-72
2024/02/02 11:25:14;;;;;;;14.48;5.43;;;;;;;;;;6186400;23;20040;-76
2024/02/02 11:28:03;;;;;;;16.13;5.03;;;;;;;;;;6162521;23;20087;-75
2024/02/02 11:30:38;;;;;;;10.77;5.95;;;;;;;;;;6187283;23;20330;-75
2024/02/02 11:33:19;;;;;;;11.55;4.78;;;;;;;;;;6161358;23;20434;-74
2024/02/02 11:35:57;;;;;;;18.60;5.65;;;;;;;;;;6184758;23;20075;-74
2024/02/02 11:38:47;;;;;;;12.65;5.30;;;;;;;;;;6161293;23;20092;-74
2024/02/02 11:41:22;;;;;;;16.30;5.65;;;;;;;;;;6188803;23;20024;-75
2024/02/02 11:43:49;;;;;;;21.50;5.78;;;;;;;;;;6141476;23;20017;-73
2024/02/02 11:46:19;;;;;;;10.52;4.38;;;;;;;;;;6162447;23;20009;-70
2024/02/02 11:48:47;;;;;;;15.23;4.65;;;;;;;;;;6138071;23;20005;-77
2024/02/02 11:51:13;;;;;;;13.02;5.65;;;;;;;;;;6163166;23;20005;-73
2024/02/02 11:54:01;;;;;;;18.30;6.15;;;;;;;;;;6165426;23;20009;-75
2024/02/02 11:56:52;;;;;;;15.55;5.53;;;;;;;;;;6170233;23;20001;-73
2024/02/02 11:59:43;;;;;;;8.90;4.97;;;;;;;;;;6197854;23;20005;-75
2024/02/02 12:02:30;;;;;;;20.48;5.22;;;;;;;;;;6191546;23;19997;-74
2024/02/02 12:05:14;;;;;;;14.00;4.97;;;;;;;;;;6134948;23;20083;-75
2024/02/02 12:08:13;;;;;;;21.92;5.22;;;;;;;;;;6134301;23;20005;-78
2024/02/02 12:10:43;;;;;;;13.35;5.00;;;;;;;;;;6108075;23;20014;-76
2024/02/02 12:13:17;;;;;;;8.98;4.53;;;;;;;;;;6159105;23;20032;-75
2024/02/02 12:15:45;;;;;;;12.20;4.70;;;;;;;;;;6133623;23;20048;-76
2024/02/02 12:18:13;;;;;;;12.95;4.43;;;;;;;;;;6158833;23;20035;-72
2024/02/02 12:20:40;;;;;;;8.70;3.85;;;;;;;;;;6160352;23;20031;-74
2024/02/02 12:23:08;;;;;;;14.45;4.40;;;;;;;;;;6132585;23;20005;-76
2024/02/02 12:25:34;;;;;;;10.68;4.30;;;;;;;;;;6108363;23;20017;-75
2024/02/02 12:28:00;;;;;;;16.90;5.65;;;;;;;;;;6130004;23;20009;-73
2024/02/02 12:30:27;;;;;;;12.93;5.07;;;;;;;;;;6160852;23;20005;-74
2024/02/02 12:32:54;;;;;;;10.77;4.68;;;;;;;;;;6158717;23;20020;-75
2024/02/02 12:35:24;;;;;;;13.82;3.75;;;;;;;;;;6157086;23;20009;-76
2024/02/02 12:37:50;;;;;;;11.50;4.03;;;;;;;;;;6108036;23;20092;-75
2024/02/02 12:40:19;;;;;;;15.02;5.57;;;;;;;;;;6131933;23;20002;-75
2024/02/02 12:42:48;;;;;;;15.70;5.00;;;;;;;;;;6131783;23;20005;-75
2024/02/02 12:45:14;;;;;;;21.20;5.18;;;;;;;;;;6156250;23;20200;-72
2024/02/02 12:47:40;;;;;;;13.07;5.00;;;;;;;;;;6129953;23;20473;-75
2024/02/02 12:50:20;;;;;;;13.60;4.22;;;;;;;;;;6156689;23;20028;-75
2024/02/02 12:52:50;;;;;;;11.50;4.72;;;;;;;;;;6157640;23;20001;-73
2024/02/02 12:55:18;;;;;;;12.00;4.68;;;;;;;;;;6158463;23;20009;-75
2024/02/02 12:57:46;;;;;;;17.52;4.90;;;;;;;;;;6134182;23;20009;-76
2024/02/02 13:00:15;;;;;;;12.35;4.65;;;;;;;;;;6160839;23;20005;-77
2024/02/02 13:02:43;;;;;;;17.30;4.75;;;;;;;;;;6135733;23;20025;-73
2024/02/02 13:05:16;;;;;;;10.18;3.63;;;;;;;;;;6158274;23;20040;-75
2024/02/02 13:07:50;;;;;;;14.55;5.55;;;;;;;;;;6133015;23;20016;-74
2024/02/02 13:10:44;;;;;;;16.63;4.80;;;;;;;;;;6157749;23;20006;-75
2024/02/02 13:13:33;;;;;;;19.88;4.90;;;;;;;;;;6159216;23;20032;-75
2024/02/02 13:16:05;;;;;;;11.32;5.03;;;;;;;;;;6155755;23;20405;-73
2024/02/02 13:18:36;;;;;;;11.38;4.32;;;;;;;;;;6159774;23;20033;-76
2024/02/02 13:21:01;;;;;;;17.38;5.20;;;;;;;;;;6135884;23;20105;-73
2024/02/02 13:23:29;;;;;;;20.88;5.13;;;;;;;;;;6158469;23;20014;-73
2024/02/02 13:26:06;;;;;;;13.27;4.47;;;;;;;;;;6156288;23;20343;-76
2024/02/02 13:28:40;;;;;;;14.60;5.18;;;;;;;;;;6157866;23;20013;-76
2024/02/02 13:31:31;;;;;;;16.00;5.07;;;;;;;;;;6159202;23;20411;-74
2024/02/02 13:34:04;;;;;;;18.33;4.78;;;;;;;;;;6158804;23;20071;-73
2024/02/02 13:36:32;;;;;;;14.05;4.97;;;;;;;;;;6157377;23;20010;-73
2024/02/02 13:39:00;;;;;;;14.93;5.80;;;;;;;;;;6156385;23;20021;-76
2024/02/02 13:41:39;;;;;;;12.45;4.30;;;;;;;;;;6132105;23;20009;-73
2024/02/02 13:44:06;;;;;;;13.02;4.53;;;;;;;;;;6111185;23;20010;-77
2024/02/02 13:46:35;;;;;;;13.30;4.93;;;;;;;;;;6158835;23;20013;-75
2024/02/02 13:49:05;;;;;;;9.07;4.10;;;;;;;;;;6159285;23;20473;-75
2024/02/02 13:51:36;;;;;;;19.80;5.22;;;;;;;;;;6155950;23;20465;-76
2024/02/02 13:54:21;;;;;;;14.60;4.32;;;;;;;;;;6157595;23;20056;-74
2024/02/02 13:56:47;;;;;;;12.40;3.97;;;;;;;;;;6131603;23;20013;-74
2024/02/02 13:59:19;;;;;;;8.82;3.95;;;;;;;;;;6154230;23;20076;-75
2024/02/02 14:01:46;;;;;;;10.10;4.07;;;;;;;;;;6129286;23;20018;-75
2024/02/02 14:04:12;;;;;;;12.57;3.72;;;;;;;;;;6127144;23;20029;-74
2024/02/02 14:06:38;;;;;;;8.93;3.85;;;;;;;;;;6152690;23;20423;-75
2024/02/02 14:09:05;;;;;;;12.98;4.18;;;;;;;;;;6150833;23;20006;-73
2024/02/02 14:11:31;;;;;;;14.77;3.45;;;;;;;;;;6126576;23;20013;-76
2024/02/02 14:14:02;;;;;;;10.60;3.42;;;;;;;;;;6153245;23;20009;-73
2024/02/02 14:16:38;;;;;;;11.93;3.90;;;;;;;;;;6157904;23;20032;-75
2024/02/02 14:19:05;;;;;;;10.32;3.10;;;;;;;;;;6161962;23;20017;-73
2024/02/02 14:21:33;;;;;;;9.32;3.50;;;;;;;;;;6158367;23;20009;-74
2024/02/02 14:24:07;;;;;;;10.93;4.00;;;;;;;;;;6157333;23;20024;-74
2024/02/02 14:26:34;;;;;;;13.73;3.92;;;;;;;;;;6156449;23;20005;-77
2024/02/02 14:29:01;;;;;;;11.07;3.50;;;;;;;;;;6158559;23;20013;-77
2024/02/02 14:31:27;;;;;;;9.65;3.65;;;;;;;;;;6152768;23;20013;-73
2024/02/02 14:33:53;;;;;;;6.45;3.15;;;;;;;;;;6153602;23;20022;-72
2024/02/02 14:36:19;;;;;;;10.40;4.15;;;;;;;;;;6154672;23;20020;-73
2024/02/02 14:38:46;;;;;;;7.22;2.78;;;;;;;;;;6157645;23;20014;-77
2024/02/02 14:41:13;;;;;;;7.43;2.65;;;;;;;;;;6156858;23;20454;-73
2024/02/02 14:43:40;;;;;;;7.57;3.55;;;;;;;;;;6153961;23;20010;-75
2024/02/02 14:46:10;;;;;;;8.32;3.20;;;;;;;;;;6156720;23;20020;-74
2024/02/02 14:48:37;;;;;;;9.23;3.30;;;;;;;;;;6157612;23;20016;-77
2024/02/02 14:51:04;;;;;;;9.77;3.70;;;;;;;;;;6156484;23;20350;-73
2024/02/02 14:53:30;;;;;;;11.73;4.43;;;;;;;;;;6153160;23;20013;-76
2024/02/02 14:55:57;;;;;;;10.60;3.58;;;;;;;;;;6154983;23;20013;-73
2024/02/02 14:58:24;;;;;;;8.88;3.45;;;;;;;;;;6155258;23;20072;-74
2024/02/02 15:00:52;;;;;;;19.42;4.85;;;;;;;;;;6155779;23;20395;-72
2024/02/02 15:03:18;;;;;;;12.77;3.88;;;;;;;;;;6171271;23;20153;-72
2024/02/02 15:05:44;;;;;;;11.68;3.85;;;;;;;;;;6161844;23;20005;-75
2024/02/02 15:08:10;;;;;;;9.57;3.30;;;;;;;;;;6189491;23;20024;-73